RJBM(METAR)
05/30 17:00
METAR RJBM 300800Z 27006KT 9999 FEW030 BKN230 22/17 Q1017 RMK 1CU030
A3005=
戻る
トップページへ戻る
IMOC Co,.Ltd.